createdAt,value
2023-10-09T00:01:47.944Z,100921.38
2023-10-09T00:06:49.997Z,100920.13
2023-10-09T00:11:58.182Z,100923.47
2023-10-09T00:17:21.004Z,100913.38
2023-10-09T00:22:24.261Z,100921.16
2023-10-09T00:27:32.634Z,100916.72
2023-10-09T00:32:34.985Z,100923.88
2023-10-09T00:37:36.622Z,100918.41
2023-10-09T00:42:39.928Z,100914.63
2023-10-09T00:47:42.240Z,100905.56
2023-10-09T00:52:52.065Z,100902.00
2023-10-09T00:57:59.085Z,100899.66
2023-10-09T01:03:21.110Z,100891.69
2023-10-09T01:08:47.597Z,100880.53
2023-10-09T01:13:53.059Z,100867.47
2023-10-09T01:18:58.621Z,100866.25
2023-10-09T01:24:03.480Z,100867.28
2023-10-09T01:29:05.093Z,100881.59
2023-10-09T01:34:11.089Z,100871.72
2023-10-09T01:39:26.999Z,100870.03
2023-10-09T01:44:35.898Z,100867.94
2023-10-09T01:49:42.627Z,100863.09
2023-10-09T01:54:51.600Z,100852.38
2023-10-09T01:59:58.921Z,100855.06
2023-10-09T02:05:11.494Z,100853.81
2023-10-09T02:10:32.854Z,100850.66
2023-10-09T02:15:46.867Z,100858.22
2023-10-09T02:21:09.402Z,100860.72
2023-10-09T02:26:27.440Z,100856.28
2023-10-09T02:31:37.670Z,100851.84
2023-10-09T02:36:42.348Z,100843.44
2023-10-09T02:41:50.840Z,100843.84
2023-10-09T02:46:58.332Z,100834.81
2023-10-09T02:52:00.149Z,100821.31
2023-10-09T02:57:07.881Z,100827.00
2023-10-09T03:02:09.498Z,100817.75
2023-10-09T03:07:11.871Z,100817.56
2023-10-09T03:12:13.629Z,100807.88
2023-10-09T03:17:15.274Z,100806.84
2023-10-09T03:22:17.966Z,100801.78
2023-10-09T03:27:19.860Z,100787.47
2023-10-09T03:32:21.705Z,100790.19
2023-10-09T03:37:34.351Z,100796.28
2023-10-09T03:42:37.732Z,100794.00
2023-10-09T03:47:43.942Z,100800.09
2023-10-09T03:52:45.995Z,100803.88
2023-10-09T03:57:47.576Z,100803.03
2023-10-09T04:02:51.944Z,100808.91
2023-10-09T04:07:55.890Z,100808.47
2023-10-09T04:12:59.727Z,100827.00
2023-10-09T04:18:02.259Z,100818.16
2023-10-09T04:23:07.246Z,100832.94
2023-10-09T04:28:19.975Z,100839.66
2023-10-09T04:33:35.328Z,100841.97
2023-10-09T04:38:38.342Z,100843.44
2023-10-09T04:43:45.678Z,100850.41
2023-10-09T04:48:47.424Z,100849.31
2023-10-09T04:54:16.328Z,100854.50
2023-10-09T04:59:19.602Z,100855.94
2023-10-09T05:04:36.097Z,100844.78
2023-10-09T05:09:56.879Z,100852.38
2023-10-09T05:15:10.032Z,100843.72
2023-10-09T05:20:40.927Z,100843.91
2023-10-09T05:25:54.577Z,100841.31
2023-10-09T05:31:09.113Z,100838.16
2023-10-09T05:36:25.899Z,100838.56
2023-10-09T05:41:47.407Z,100833.28
2023-10-09T05:47:07.302Z,100826.09
2023-10-09T05:52:28.729Z,100824.22
2023-10-09T05:58:05.834Z,100826.00
2023-10-09T06:03:26.713Z,100832.75
2023-10-09T06:08:43.066Z,100832.13
2023-10-09T06:13:48.087Z,100834.38
2023-10-09T06:19:09.091Z,100818.69
2023-10-09T06:24:16.578Z,100829.06
2023-10-09T06:29:36.431Z,100829.72
2023-10-09T06:34:45.786Z,100848.78
2023-10-09T06:39:59.149Z,100857.97
2023-10-09T06:45:09.483Z,100852.31
2023-10-09T06:50:22.365Z,100870.22
2023-10-09T06:55:35.186Z,100862.63
2023-10-09T07:01:01.849Z,100862.75
2023-10-09T07:06:26.374Z,100864.06
2023-10-09T07:11:57.750Z,100856.59
2023-10-09T07:17:02.969Z,100861.88
2023-10-09T07:22:05.345Z,100875.72
2023-10-09T07:27:11.086Z,100882.75
2023-10-09T07:32:23.463Z,100881.00
2023-10-09T07:37:31.791Z,100879.56
2023-10-09T07:42:45.222Z,100879.78
2023-10-09T07:48:02.293Z,100870.72
2023-10-09T07:53:16.179Z,100870.00
2023-10-09T07:58:17.882Z,100862.00
2023-10-09T08:03:25.889Z,100864.44
2023-10-09T08:08:39.230Z,100843.31
2023-10-09T08:13:50.490Z,100836.19
2023-10-09T08:18:52.894Z,100837.19
2023-10-09T08:23:55.725Z,100838.75
2023-10-09T08:29:16.261Z,100837.25
2023-10-09T08:39:36.203Z,100834.66
2023-10-09T08:44:45.411Z,100824.53
2023-10-09T08:49:47.423Z,100835.44
2023-10-09T08:54:49.034Z,100849.59
2023-10-09T08:59:52.949Z,100846.97
2023-10-09T09:04:55.285Z,100854.22
2023-10-09T09:10:18.577Z,100869.28
2023-10-09T09:15:21.588Z,100861.63
2023-10-09T09:20:33.400Z,100858.94
2023-10-09T09:25:46.840Z,100851.69
2023-10-09T09:30:52.279Z,100840.22
2023-10-09T09:36:05.240Z,100844.03
2023-10-09T09:41:08.706Z,100833.59
2023-10-09T09:46:12.937Z,100836.75
2023-10-09T09:51:18.713Z,100826.47
2023-10-09T09:56:25.655Z,100834.28
2023-10-09T10:01:36.199Z,100841.22
2023-10-09T10:06:41.587Z,100836.75
2023-10-09T10:11:49.583Z,100824.66
2023-10-09T10:17:15.082Z,100816.22
2023-10-09T10:22:31.367Z,100798.94
2023-10-09T10:28:01.899Z,100809.72
2023-10-09T10:33:10.880Z,100807.00
2023-10-09T10:38:26.819Z,100811.69
2023-10-09T10:43:46.750Z,100794.56
2023-10-09T10:48:50.276Z,100784.94
2023-10-09T10:54:13.670Z,100789.50
2023-10-09T10:59:16.101Z,100812.97
2023-10-09T11:04:33.878Z,100817.44
2023-10-09T11:15:45.308Z,100811.41
2023-10-09T11:21:03.689Z,100814.06
2023-10-09T11:26:25.648Z,100819.56
2023-10-09T11:31:27.277Z,100812.53
2023-10-09T11:36:35.648Z,100803.34
2023-10-09T11:41:42.477Z,100802.75
2023-10-09T11:47:19.669Z,100774.13
2023-10-09T11:52:41.712Z,100768.88
2023-10-09T11:57:43.377Z,100750.91
2023-10-09T12:02:45.378Z,100751.66
2023-10-09T12:07:48.212Z,100758.81
2023-10-09T12:12:50.567Z,100763.06
2023-10-09T12:17:54.660Z,100752.31
2023-10-09T12:22:58.759Z,100738.94
2023-10-09T12:28:02.998Z,100720.84
2023-10-09T12:33:04.912Z,100709.06
2023-10-09T12:38:11.099Z,100701.47
2023-10-09T12:43:20.950Z,100696.44
2023-10-09T12:48:24.785Z,100675.94
2023-10-09T12:53:30.943Z,100678.63
2023-10-09T12:58:39.634Z,100687.34
2023-10-09T13:03:43.693Z,100672.56
2023-10-09T13:08:46.511Z,100665.53
2023-10-09T13:13:48.785Z,100672.84
2023-10-09T13:18:52.325Z,100664.03
2023-10-09T13:23:55.931Z,100670.75
2023-10-09T13:28:58.774Z,100656.66
2023-10-09T13:34:02.394Z,100649.03
2023-10-09T13:39:24.507Z,100650.94
2023-10-09T13:44:29.518Z,100634.91
2023-10-09T13:49:32.249Z,100637.75
2023-10-09T13:54:33.927Z,100622.19
2023-10-09T13:59:37.223Z,100605.91
2023-10-09T14:04:39.072Z,100617.63
2023-10-09T14:09:46.750Z,100619.63
2023-10-09T14:14:48.926Z,100629.53
2023-10-09T14:19:52.715Z,100620.94
2023-10-09T14:24:58.183Z,100614.50
2023-10-09T14:30:13.669Z,100612.00
2023-10-09T14:35:15.357Z,100598.25
2023-10-09T14:40:22.189Z,100592.25
2023-10-09T14:45:26.850Z,100599.91
2023-10-09T14:50:28.944Z,100604.50
2023-10-09T14:55:32.791Z,100592.28
2023-10-09T15:00:35.396Z,100594.19
2023-10-09T15:05:37.344Z,100591.84
2023-10-09T15:10:49.456Z,100594.03
2023-10-09T15:15:52.406Z,100599.28
2023-10-09T15:20:54.270Z,100601.94
2023-10-09T15:25:55.965Z,100604.41
2023-10-09T15:30:57.519Z,100604.97
2023-10-09T15:36:00.309Z,100623.34
2023-10-09T15:41:01.872Z,100631.22
2023-10-09T15:46:03.820Z,100633.50
2023-10-09T15:51:13.083Z,100640.19
2023-10-09T15:56:17.533Z,100635.19
2023-10-09T16:01:21.880Z,100632.72
2023-10-09T16:06:28.161Z,100621.44
2023-10-09T16:11:34.954Z,100630.59
2023-10-09T16:16:42.817Z,100629.94
2023-10-09T16:21:45.089Z,100632.34
2023-10-09T16:26:52.258Z,100641.63
2023-10-09T16:31:56.616Z,100642.19
2023-10-09T16:36:58.230Z,100630.69
2023-10-09T16:42:00.173Z,100644.19
2023-10-09T16:47:01.873Z,100637.97
2023-10-09T16:52:12.159Z,100653.38
2023-10-09T16:57:13.988Z,100656.47
2023-10-09T17:02:23.331Z,100656.00
2023-10-09T17:07:28.893Z,100664.38
2023-10-09T17:12:30.420Z,100661.13
2023-10-09T17:17:32.387Z,100663.03
2023-10-09T17:22:34.436Z,100675.81
2023-10-09T17:27:35.985Z,100677.19
2023-10-09T17:32:38.312Z,100690.44
2023-10-09T17:37:42.602Z,100697.53
2023-10-09T17:42:44.685Z,100699.34
2023-10-09T17:47:46.412Z,100704.47
2023-10-09T17:52:48.205Z,100701.19
2023-10-09T17:57:50.829Z,100702.34
2023-10-09T18:02:53.335Z,100703.09
2023-10-09T18:07:55.292Z,100707.69
2023-10-09T18:13:00.436Z,100707.06
2023-10-09T18:18:02.091Z,100693.72
2023-10-09T18:23:06.113Z,100695.28
2023-10-09T18:28:07.943Z,100686.63
2023-10-09T18:33:09.673Z,100686.25
2023-10-09T18:38:17.191Z,100687.84
2023-10-09T18:43:20.758Z,100692.22
2023-10-09T18:48:27.943Z,100690.81
2023-10-09T18:53:32.959Z,100692.75
2023-10-09T18:58:34.577Z,100690.31
2023-10-09T19:03:36.754Z,100695.56
2023-10-09T19:08:38.387Z,100695.56
2023-10-09T19:13:40.263Z,100685.88
2023-10-09T19:18:41.831Z,100680.22
2023-10-09T19:23:47.468Z,100681.28
2023-10-09T19:28:49.526Z,100695.19
2023-10-09T19:33:53.191Z,100698.78
2023-10-09T19:38:56.992Z,100708.88
2023-10-09T19:43:58.832Z,100717.59
2023-10-09T19:49:00.571Z,100717.28
2023-10-09T19:54:02.163Z,100733.31
2023-10-09T19:59:03.753Z,100733.09
2023-10-09T20:04:06.226Z,100748.97
2023-10-09T20:09:13.435Z,100740.75
2023-10-09T20:14:15.733Z,100739.97
2023-10-09T20:19:18.693Z,100749.09
2023-10-09T20:24:20.271Z,100741.22
2023-10-09T20:29:21.876Z,100750.59
2023-10-09T20:34:26.694Z,100749.78
2023-10-09T20:39:28.307Z,100760.00
2023-10-09T20:44:30.211Z,100756.91
2023-10-09T20:49:34.578Z,100762.53
2023-10-09T20:54:36.163Z,100753.53
2023-10-09T20:59:37.761Z,100767.41
2023-10-09T21:04:39.313Z,100770.03
2023-10-09T21:09:40.945Z,100766.31
2023-10-09T21:14:44.296Z,100778.16
2023-10-09T21:19:50.394Z,100781.22
2023-10-09T21:24:52.018Z,100788.94
2023-10-09T21:29:56.411Z,100789.84
2023-10-09T21:34:58.084Z,100805.06
2023-10-09T21:40:04.130Z,100804.41
2023-10-09T21:45:06.246Z,100806.34
2023-10-09T21:50:08.142Z,100810.75
2023-10-09T21:55:10.047Z,100814.25
2023-10-09T22:00:15.919Z,100828.38
2023-10-09T22:05:22.395Z,100827.19
2023-10-09T22:10:24.111Z,100830.84
2023-10-09T22:15:25.826Z,100833.75
2023-10-09T22:20:31.468Z,100823.44
2023-10-09T22:25:36.870Z,100830.84
2023-10-09T22:30:38.523Z,100833.19
2023-10-09T22:35:46.121Z,100838.28
2023-10-09T22:40:54.941Z,100825.84
2023-10-09T22:45:58.020Z,100824.41
2023-10-09T22:50:59.870Z,100821.97
2023-10-09T22:56:02.616Z,100829.41
2023-10-09T23:01:13.537Z,100834.72
2023-10-09T23:06:15.232Z,100823.59
2023-10-09T23:11:26.461Z,100825.53
2023-10-09T23:16:36.532Z,100831.91
2023-10-09T23:21:56.683Z,100822.66
2023-10-09T23:26:58.186Z,100811.13
2023-10-09T23:32:33.227Z,100813.53
2023-10-09T23:37:38.386Z,100813.78
2023-10-09T23:42:40.378Z,100819.97
2023-10-09T23:47:42.464Z,100827.38
2023-10-09T23:52:47.669Z,100835.03
2023-10-09T23:57:58.334Z,100838.25
